sensor_id;sensor_type;location;lat;lon;timestamp;P1;durP1;ratioP1;P2;durP2;ratioP2
79052;SDS011;68451;49.510;6.026;2023-10-08T00:01:41;9.80;;;4.75;;
79052;SDS011;68451;49.510;6.026;2023-10-08T00:04:08;8.95;;;5.32;;
79052;SDS011;68451;49.510;6.026;2023-10-08T00:06:36;9.00;;;5.18;;
79052;SDS011;68451;49.510;6.026;2023-10-08T00:09:03;7.32;;;4.75;;
79052;SDS011;68451;49.510;6.026;2023-10-08T00:11:33;8.05;;;5.43;;
79052;SDS011;68451;49.510;6.026;2023-10-08T00:13:59;10.10;;;5.00;;
79052;SDS011;68451;49.510;6.026;2023-10-08T00:16:26;8.55;;;4.72;;
79052;SDS011;68451;49.510;6.026;2023-10-08T00:18:53;7.95;;;5.28;;
79052;SDS011;68451;49.510;6.026;2023-10-08T00:21:23;6.85;;;5.18;;
79052;SDS011;68451;49.510;6.026;2023-10-08T00:23:52;8.27;;;6.13;;
79052;SDS011;68451;49.510;6.026;2023-10-08T00:26:20;10.77;;;5.80;;
79052;SDS011;68451;49.510;6.026;2023-10-08T00:28:55;10.40;;;6.57;;
79052;SDS011;68451;49.510;6.026;2023-10-08T00:31:22;11.48;;;5.82;;
79052;SDS011;68451;49.510;6.026;2023-10-08T00:33:55;11.88;;;7.82;;
79052;SDS011;68451;49.510;6.026;2023-10-08T00:36:21;9.65;;;5.90;;
79052;SDS011;68451;49.510;6.026;2023-10-08T00:38:49;7.97;;;5.22;;
79052;SDS011;68451;49.510;6.026;2023-10-08T00:41:23;10.38;;;7.28;;
79052;SDS011;68451;49.510;6.026;2023-10-08T00:43:53;10.07;;;5.90;;
79052;SDS011;68451;49.510;6.026;2023-10-08T00:46:22;9.40;;;6.47;;
79052;SDS011;68451;49.510;6.026;2023-10-08T00:48:52;11.38;;;6.65;;
79052;SDS011;68451;49.510;6.026;2023-10-08T00:51:24;9.77;;;7.03;;
79052;SDS011;68451;49.510;6.026;2023-10-08T00:59:20;12.93;;;6.70;;
79052;SDS011;68451;49.510;6.026;2023-10-08T01:01:47;9.90;;;6.80;;
79052;SDS011;68451;49.510;6.026;2023-10-08T01:04:20;9.02;;;6.80;;
79052;SDS011;68451;49.510;6.026;2023-10-08T01:06:52;10.25;;;6.65;;
79052;SDS011;68451;49.510;6.026;2023-10-08T01:09:26;9.95;;;7.95;;
79052;SDS011;68451;49.510;6.026;2023-10-08T01:12:06;12.18;;;6.40;;
79052;SDS011;68451;49.510;6.026;2023-10-08T01:14:34;10.05;;;7.20;;
79052;SDS011;68451;49.510;6.026;2023-10-08T01:17:00;11.30;;;7.38;;
79052;SDS011;68451;49.510;6.026;2023-10-08T01:19:26;9.88;;;7.10;;
79052;SDS011;68451;49.510;6.026;2023-10-08T01:21:52;12.40;;;6.65;;
79052;SDS011;68451;49.510;6.026;2023-10-08T01:24:18;9.82;;;6.15;;
79052;SDS011;68451;49.510;6.026;2023-10-08T01:26:48;9.93;;;6.03;;
79052;SDS011;68451;49.510;6.026;2023-10-08T01:29:14;9.43;;;6.57;;
79052;SDS011;68451;49.510;6.026;2023-10-08T01:31:46;9.70;;;6.28;;
79052;SDS011;68451;49.510;6.026;2023-10-08T01:34:13;9.25;;;6.45;;
79052;SDS011;68451;49.510;6.026;2023-10-08T01:36:42;10.18;;;6.93;;
79052;SDS011;68451;49.510;6.026;2023-10-08T01:39:10;9.77;;;6.30;;
79052;SDS011;68451;49.510;6.026;2023-10-08T01:41:44;8.18;;;6.90;;
79052;SDS011;68451;49.510;6.026;2023-10-08T01:44:11;8.77;;;6.32;;
79052;SDS011;68451;49.510;6.026;2023-10-08T01:46:37;8.38;;;6.30;;
79052;SDS011;68451;49.510;6.026;2023-10-08T01:49:05;9.77;;;7.28;;
79052;SDS011;68451;49.510;6.026;2023-10-08T01:51:40;9.70;;;6.40;;
79052;SDS011;68451;49.510;6.026;2023-10-08T01:54:12;7.95;;;6.28;;
79052;SDS011;68451;49.510;6.026;2023-10-08T01:56:43;10.45;;;6.72;;
79052;SDS011;68451;49.510;6.026;2023-10-08T01:59:12;7.72;;;5.85;;
79052;SDS011;68451;49.510;6.026;2023-10-08T02:01:42;9.65;;;6.50;;
79052;SDS011;68451;49.510;6.026;2023-10-08T02:04:08;12.18;;;6.70;;
79052;SDS011;68451;49.510;6.026;2023-10-08T02:06:37;8.68;;;6.53;;
79052;SDS011;68451;49.510;6.026;2023-10-08T02:09:08;10.82;;;7.20;;
79052;SDS011;68451;49.510;6.026;2023-10-08T02:11:45;8.43;;;6.65;;
79052;SDS011;68451;49.510;6.026;2023-10-08T02:14:15;12.38;;;6.85;;
79052;SDS011;68451;49.510;6.026;2023-10-08T02:16:42;9.20;;;6.50;;
79052;SDS011;68451;49.510;6.026;2023-10-08T02:19:09;9.50;;;6.68;;
79052;SDS011;68451;49.510;6.026;2023-10-08T02:21:36;9.75;;;6.70;;
79052;SDS011;68451;49.510;6.026;2023-10-08T02:24:05;9.52;;;6.22;;
79052;SDS011;68451;49.510;6.026;2023-10-08T02:26:32;10.60;;;6.97;;
79052;SDS011;68451;49.510;6.026;2023-10-08T02:28:59;10.73;;;6.97;;
79052;SDS011;68451;49.510;6.026;2023-10-08T02:31:25;11.73;;;6.63;;
79052;SDS011;68451;49.510;6.026;2023-10-08T02:33:51;10.20;;;6.63;;
79052;SDS011;68451;49.510;6.026;2023-10-08T02:36:16;9.55;;;6.68;;
79052;SDS011;68451;49.510;6.026;2023-10-08T02:38:42;7.85;;;6.60;;
79052;SDS011;68451;49.510;6.026;2023-10-08T02:41:07;9.77;;;7.35;;
79052;SDS011;68451;49.510;6.026;2023-10-08T02:43:33;10.63;;;7.20;;
79052;SDS011;68451;49.510;6.026;2023-10-08T02:46:02;12.25;;;6.40;;
79052;SDS011;68451;49.510;6.026;2023-10-08T02:48:32;11.90;;;8.00;;
79052;SDS011;68451;49.510;6.026;2023-10-08T02:50:59;10.13;;;6.50;;
79052;SDS011;68451;49.510;6.026;2023-10-08T02:53:39;11.88;;;7.30;;
79052;SDS011;68451;49.510;6.026;2023-10-08T02:56:07;12.43;;;7.97;;
79052;SDS011;68451;49.510;6.026;2023-10-08T02:58:38;8.60;;;6.95;;
79052;SDS011;68451;49.510;6.026;2023-10-08T03:01:04;9.95;;;7.85;;
79052;SDS011;68451;49.510;6.026;2023-10-08T03:03:30;11.52;;;7.97;;
79052;SDS011;68451;49.510;6.026;2023-10-08T03:05:57;11.30;;;7.40;;
79052;SDS011;68451;49.510;6.026;2023-10-08T03:08:23;9.93;;;7.57;;
79052;SDS011;68451;49.510;6.026;2023-10-08T03:10:49;10.35;;;6.78;;
79052;SDS011;68451;49.510;6.026;2023-10-08T03:13:20;11.13;;;7.23;;
79052;SDS011;68451;49.510;6.026;2023-10-08T03:15:46;11.05;;;6.70;;
79052;SDS011;68451;49.510;6.026;2023-10-08T03:18:31;12.82;;;7.78;;
79052;SDS011;68451;49.510;6.026;2023-10-08T03:21:07;12.70;;;7.55;;
79052;SDS011;68451;49.510;6.026;2023-10-08T03:23:46;9.75;;;7.05;;
79052;SDS011;68451;49.510;6.026;2023-10-08T03:26:13;13.52;;;8.38;;
79052;SDS011;68451;49.510;6.026;2023-10-08T03:29:01;10.13;;;7.30;;
79052;SDS011;68451;49.510;6.026;2023-10-08T03:31:40;12.93;;;7.35;;
79052;SDS011;68451;49.510;6.026;2023-10-08T03:34:18;12.07;;;8.18;;
79052;SDS011;68451;49.510;6.026;2023-10-08T03:36:44;13.50;;;8.15;;
79052;SDS011;68451;49.510;6.026;2023-10-08T03:39:11;12.50;;;7.97;;
79052;SDS011;68451;49.510;6.026;2023-10-08T03:41:42;13.02;;;7.40;;
79052;SDS011;68451;49.510;6.026;2023-10-08T03:44:16;13.00;;;8.23;;
79052;SDS011;68451;49.510;6.026;2023-10-08T03:46:43;15.02;;;8.70;;
79052;SDS011;68451;49.510;6.026;2023-10-08T03:49:12;11.02;;;7.60;;
79052;SDS011;68451;49.510;6.026;2023-10-08T03:51:44;11.25;;;6.43;;
79052;SDS011;68451;49.510;6.026;2023-10-08T03:54:09;10.32;;;6.75;;
79052;SDS011;68451;49.510;6.026;2023-10-08T03:56:43;10.25;;;8.55;;
79052;SDS011;68451;49.510;6.026;2023-10-08T03:59:16;8.75;;;7.18;;
79052;SDS011;68451;49.510;6.026;2023-10-08T04:01:56;8.68;;;5.97;;
79052;SDS011;68451;49.510;6.026;2023-10-08T04:04:35;10.75;;;6.93;;
79052;SDS011;68451;49.510;6.026;2023-10-08T04:07:18;10.13;;;6.72;;
79052;SDS011;68451;49.510;6.026;2023-10-08T04:09:54;9.88;;;7.68;;
79052;SDS011;68451;49.510;6.026;2023-10-08T04:12:40;12.02;;;7.13;;
79052;SDS011;68451;49.510;6.026;2023-10-08T04:15:09;9.98;;;6.20;;
79052;SDS011;68451;49.510;6.026;2023-10-08T04:17:40;12.70;;;6.97;;
79052;SDS011;68451;49.510;6.026;2023-10-08T04:20:16;11.02;;;7.05;;
79052;SDS011;68451;49.510;6.026;2023-10-08T04:23:00;10.43;;;7.15;;
79052;SDS011;68451;49.510;6.026;2023-10-08T04:25:27;11.10;;;6.97;;
79052;SDS011;68451;49.510;6.026;2023-10-08T04:27:56;10.93;;;7.20;;
79052;SDS011;68451;49.510;6.026;2023-10-08T04:30:26;11.40;;;8.30;;
79052;SDS011;68451;49.510;6.026;2023-10-08T04:33:02;11.25;;;7.22;;
79052;SDS011;68451;49.510;6.026;2023-10-08T04:35:32;12.60;;;7.45;;
79052;SDS011;68451;49.510;6.026;2023-10-08T04:38:03;16.73;;;7.17;;
79052;SDS011;68451;49.510;6.026;2023-10-08T04:40:33;12.57;;;7.00;;
79052;SDS011;68451;49.510;6.026;2023-10-08T04:43:06;8.95;;;6.40;;
79052;SDS011;68451;49.510;6.026;2023-10-08T04:45:35;13.63;;;7.38;;
79052;SDS011;68451;49.510;6.026;2023-10-08T04:48:03;10.75;;;6.85;;
79052;SDS011;68451;49.510;6.026;2023-10-08T04:50:34;13.20;;;8.43;;
79052;SDS011;68451;49.510;6.026;2023-10-08T04:53:01;8.50;;;5.68;;
79052;SDS011;68451;49.510;6.026;2023-10-08T04:55:33;9.07;;;6.93;;
79052;SDS011;68451;49.510;6.026;2023-10-08T04:57:59;9.70;;;6.25;;
79052;SDS011;68451;49.510;6.026;2023-10-08T05:00:27;12.23;;;7.00;;
79052;SDS011;68451;49.510;6.026;2023-10-08T05:03:11;10.93;;;6.53;;
79052;SDS011;68451;49.510;6.026;2023-10-08T05:05:39;9.65;;;7.35;;
79052;SDS011;68451;49.510;6.026;2023-10-08T05:08:32;10.52;;;7.07;;
79052;SDS011;68451;49.510;6.026;2023-10-08T05:11:09;15.73;;;9.93;;
79052;SDS011;68451;49.510;6.026;2023-10-08T05:14:02;14.02;;;10.85;;
79052;SDS011;68451;49.510;6.026;2023-10-08T05:16:31;10.95;;;7.85;;
79052;SDS011;68451;49.510;6.026;2023-10-08T05:19:08;13.43;;;8.18;;
79052;SDS011;68451;49.510;6.026;2023-10-08T05:21:59;15.70;;;8.32;;
79052;SDS011;68451;49.510;6.026;2023-10-08T05:24:43;10.50;;;7.43;;
79052;SDS011;68451;49.510;6.026;2023-10-08T05:27:31;13.38;;;7.13;;
79052;SDS011;68451;49.510;6.026;2023-10-08T05:30:28;9.88;;;6.90;;
79052;SDS011;68451;49.510;6.026;2023-10-08T05:33:07;10.60;;;6.50;;
79052;SDS011;68451;49.510;6.026;2023-10-08T05:35:43;10.80;;;7.35;;
79052;SDS011;68451;49.510;6.026;2023-10-08T05:38:13;13.80;;;8.85;;
79052;SDS011;68451;49.510;6.026;2023-10-08T05:40:59;12.00;;;8.00;;
79052;SDS011;68451;49.510;6.026;2023-10-08T05:43:29;12.38;;;8.68;;
79052;SDS011;68451;49.510;6.026;2023-10-08T05:48:55;12.82;;;8.90;;
79052;SDS011;68451;49.510;6.026;2023-10-08T05:51:31;14.38;;;8.98;;
79052;SDS011;68451;49.510;6.026;2023-10-08T05:56:52;12.63;;;8.65;;
79052;SDS011;68451;49.510;6.026;2023-10-08T05:59:33;11.20;;;8.38;;
79052;SDS011;68451;49.510;6.026;2023-10-08T06:02:18;10.52;;;7.68;;
79052;SDS011;68451;49.510;6.026;2023-10-08T06:05:03;15.73;;;8.43;;
79052;SDS011;68451;49.510;6.026;2023-10-08T06:10:15;13.02;;;8.07;;
79052;SDS011;68451;49.510;6.026;2023-10-08T06:15:38;10.45;;;8.55;;
79052;SDS011;68451;49.510;6.026;2023-10-08T06:18:21;13.02;;;8.60;;
79052;SDS011;68451;49.510;6.026;2023-10-08T06:21:00;12.23;;;7.93;;
79052;SDS011;68451;49.510;6.026;2023-10-08T06:23:33;12.65;;;8.75;;
79052;SDS011;68451;49.510;6.026;2023-10-08T06:26:00;11.38;;;8.60;;
79052;SDS011;68451;49.510;6.026;2023-10-08T06:28:36;11.82;;;7.90;;
79052;SDS011;68451;49.510;6.026;2023-10-08T06:31:04;11.50;;;8.63;;
79052;SDS011;68451;49.510;6.026;2023-10-08T06:33:36;11.90;;;8.10;;
79052;SDS011;68451;49.510;6.026;2023-10-08T06:36:05;12.23;;;8.50;;
79052;SDS011;68451;49.510;6.026;2023-10-08T06:38:39;14.80;;;9.48;;
79052;SDS011;68451;49.510;6.026;2023-10-08T06:41:06;10.02;;;7.40;;
79052;SDS011;68451;49.510;6.026;2023-10-08T06:43:39;16.05;;;8.73;;
79052;SDS011;68451;49.510;6.026;2023-10-08T06:46:08;12.68;;;8.00;;
79052;SDS011;68451;49.510;6.026;2023-10-08T06:48:40;12.68;;;8.82;;
79052;SDS011;68451;49.510;6.026;2023-10-08T06:51:11;10.25;;;7.93;;
79052;SDS011;68451;49.510;6.026;2023-10-08T06:53:43;11.68;;;7.97;;
79052;SDS011;68451;49.510;6.026;2023-10-08T06:56:13;9.57;;;8.00;;
79052;SDS011;68451;49.510;6.026;2023-10-08T06:58:40;11.27;;;7.65;;
79052;SDS011;68451;49.510;6.026;2023-10-08T07:01:13;10.50;;;7.78;;
79052;SDS011;68451;49.510;6.026;2023-10-08T07:03:44;11.60;;;7.30;;
79052;SDS011;68451;49.510;6.026;2023-10-08T07:06:11;11.65;;;8.05;;
79052;SDS011;68451;49.510;6.026;2023-10-08T07:08:51;8.52;;;7.63;;
79052;SDS011;68451;49.510;6.026;2023-10-08T07:11:20;17.85;;;8.10;;
79052;SDS011;68451;49.510;6.026;2023-10-08T07:13:47;10.23;;;7.43;;
79052;SDS011;68451;49.510;6.026;2023-10-08T07:16:13;13.57;;;8.02;;
79052;SDS011;68451;49.510;6.026;2023-10-08T07:18:42;9.63;;;6.63;;
79052;SDS011;68451;49.510;6.026;2023-10-08T07:21:15;8.65;;;6.88;;
79052;SDS011;68451;49.510;6.026;2023-10-08T07:23:40;10.07;;;8.05;;
79052;SDS011;68451;49.510;6.026;2023-10-08T07:26:27;10.75;;;8.48;;
79052;SDS011;68451;49.510;6.026;2023-10-08T07:29:05;9.43;;;7.60;;
79052;SDS011;68451;49.510;6.026;2023-10-08T07:31:34;11.10;;;7.20;;
79052;SDS011;68451;49.510;6.026;2023-10-08T07:34:06;10.35;;;7.30;;
79052;SDS011;68451;49.510;6.026;2023-10-08T07:36:43;8.65;;;6.85;;
79052;SDS011;68451;49.510;6.026;2023-10-08T07:39:12;9.18;;;7.25;;
79052;SDS011;68451;49.510;6.026;2023-10-08T07:41:56;9.75;;;6.80;;
79052;SDS011;68451;49.510;6.026;2023-10-08T07:44:24;8.60;;;6.60;;
79052;SDS011;68451;49.510;6.026;2023-10-08T07:46:53;11.68;;;7.28;;
79052;SDS011;68451;49.510;6.026;2023-10-08T07:49:19;9.90;;;7.60;;
79052;SDS011;68451;49.510;6.026;2023-10-08T07:51:48;10.63;;;7.95;;
79052;SDS011;68451;49.510;6.026;2023-10-08T07:54:22;10.25;;;7.70;;
79052;SDS011;68451;49.510;6.026;2023-10-08T07:57:09;16.17;;;7.60;;
79052;SDS011;68451;49.510;6.026;2023-10-08T07:59:43;8.30;;;7.15;;
79052;SDS011;68451;49.510;6.026;2023-10-08T08:02:12;8.00;;;7.20;;
79052;SDS011;68451;49.510;6.026;2023-10-08T08:04:42;10.70;;;7.63;;
79052;SDS011;68451;49.510;6.026;2023-10-08T08:07:10;14.57;;;8.73;;
79052;SDS011;68451;49.510;6.026;2023-10-08T08:09:42;11.30;;;7.15;;
79052;SDS011;68451;49.510;6.026;2023-10-08T08:12:16;11.20;;;7.50;;
79052;SDS011;68451;49.510;6.026;2023-10-08T08:14:46;11.57;;;7.10;;
79052;SDS011;68451;49.510;6.026;2023-10-08T08:17:13;9.70;;;7.35;;
79052;SDS011;68451;49.510;6.026;2023-10-08T08:19:42;9.27;;;7.32;;
79052;SDS011;68451;49.510;6.026;2023-10-08T08:22:11;10.18;;;7.15;;
79052;SDS011;68451;49.510;6.026;2023-10-08T08:24:56;8.50;;;7.70;;
79052;SDS011;68451;49.510;6.026;2023-10-08T08:27:43;8.20;;;6.65;;
79052;SDS011;68451;49.510;6.026;2023-10-08T08:30:11;8.43;;;7.30;;
79052;SDS011;68451;49.510;6.026;2023-10-08T08:32:40;9.27;;;7.75;;
79052;SDS011;68451;49.510;6.026;2023-10-08T08:35:10;11.23;;;9.88;;
79052;SDS011;68451;49.510;6.026;2023-10-08T08:37:37;9.38;;;8.07;;
79052;SDS011;68451;49.510;6.026;2023-10-08T08:40:06;11.30;;;7.78;;
79052;SDS011;68451;49.510;6.026;2023-10-08T08:42:47;8.23;;;7.35;;
79052;SDS011;68451;49.510;6.026;2023-10-08T08:45:15;9.95;;;7.85;;
79052;SDS011;68451;49.510;6.026;2023-10-08T08:47:45;7.35;;;6.25;;
79052;SDS011;68451;49.510;6.026;2023-10-08T08:50:11;9.05;;;7.45;;
79052;SDS011;68451;49.510;6.026;2023-10-08T08:52:36;10.20;;;7.43;;
79052;SDS011;68451;49.510;6.026;2023-10-08T08:55:08;10.73;;;7.53;;
79052;SDS011;68451;49.510;6.026;2023-10-08T08:57:46;9.40;;;6.75;;
79052;SDS011;68451;49.510;6.026;2023-10-08T09:00:13;8.38;;;6.90;;
79052;SDS011;68451;49.510;6.026;2023-10-08T09:02:40;9.35;;;6.68;;
79052;SDS011;68451;49.510;6.026;2023-10-08T09:05:06;7.25;;;6.18;;
79052;SDS011;68451;49.510;6.026;2023-10-08T09:08:06;9.98;;;6.03;;
79052;SDS011;68451;49.510;6.026;2023-10-08T09:10:36;8.23;;;6.13;;
79052;SDS011;68451;49.510;6.026;2023-10-08T09:13:06;7.80;;;6.63;;
79052;SDS011;68451;49.510;6.026;2023-10-08T09:15:36;8.20;;;6.18;;
79052;SDS011;68451;49.510;6.026;2023-10-08T09:18:02;9.00;;;5.43;;
79052;SDS011;68451;49.510;6.026;2023-10-08T09:20:31;8.65;;;6.38;;
79052;SDS011;68451;49.510;6.026;2023-10-08T09:23:11;10.77;;;6.82;;
79052;SDS011;68451;49.510;6.026;2023-10-08T09:25:38;10.55;;;6.20;;
79052;SDS011;68451;49.510;6.026;2023-10-08T09:28:05;11.50;;;6.53;;
79052;SDS011;68451;49.510;6.026;2023-10-08T09:30:36;12.02;;;6.07;;
79052;SDS011;68451;49.510;6.026;2023-10-08T09:33:09;9.05;;;5.57;;
79052;SDS011;68451;49.510;6.026;2023-10-08T09:35:35;7.13;;;5.97;;
79052;SDS011;68451;49.510;6.026;2023-10-08T09:38:06;11.27;;;6.07;;
79052;SDS011;68451;49.510;6.026;2023-10-08T09:40:38;7.32;;;5.90;;
79052;SDS011;68451;49.510;6.026;2023-10-08T09:43:11;8.98;;;6.30;;
79052;SDS011;68451;49.510;6.026;2023-10-08T09:45:37;11.15;;;6.78;;
79052;SDS011;68451;49.510;6.026;2023-10-08T09:48:05;8.55;;;6.05;;
79052;SDS011;68451;49.510;6.026;2023-10-08T09:50:40;8.93;;;6.65;;
79052;SDS011;68451;49.510;6.026;2023-10-08T09:53:10;10.57;;;9.25;;
79052;SDS011;68451;49.510;6.026;2023-10-08T09:55:45;9.50;;;7.30;;
79052;SDS011;68451;49.510;6.026;2023-10-08T09:58:19;9.10;;;6.88;;
79052;SDS011;68451;49.510;6.026;2023-10-08T10:00:47;13.38;;;7.35;;
79052;SDS011;68451;49.510;6.026;2023-10-08T10:03:14;8.90;;;6.35;;
79052;SDS011;68451;49.510;6.026;2023-10-08T10:05:40;10.07;;;6.20;;
79052;SDS011;68451;49.510;6.026;2023-10-08T10:08:08;8.70;;;6.07;;
79052;SDS011;68451;49.510;6.026;2023-10-08T10:10:37;10.30;;;6.28;;
79052;SDS011;68451;49.510;6.026;2023-10-08T10:13:04;10.95;;;5.82;;
79052;SDS011;68451;49.510;6.026;2023-10-08T10:15:33;9.45;;;6.45;;
79052;SDS011;68451;49.510;6.026;2023-10-08T10:20:58;11.20;;;6.53;;
79052;SDS011;68451;49.510;6.026;2023-10-08T10:23:38;10.63;;;6.47;;
79052;SDS011;68451;49.510;6.026;2023-10-08T10:31:34;11.60;;;6.47;;
79052;SDS011;68451;49.510;6.026;2023-10-08T10:34:08;10.73;;;7.60;;
79052;SDS011;68451;49.510;6.026;2023-10-08T10:36:34;12.30;;;6.90;;
79052;SDS011;68451;49.510;6.026;2023-10-08T10:39:01;10.27;;;6.80;;
79052;SDS011;68451;49.510;6.026;2023-10-08T10:41:41;10.98;;;7.97;;
79052;SDS011;68451;49.510;6.026;2023-10-08T10:44:16;8.63;;;6.57;;
79052;SDS011;68451;49.510;6.026;2023-10-08T10:46:42;11.85;;;6.68;;
79052;SDS011;68451;49.510;6.026;2023-10-08T10:49:15;10.63;;;6.57;;
79052;SDS011;68451;49.510;6.026;2023-10-08T10:51:49;11.30;;;6.68;;
79052;SDS011;68451;49.510;6.026;2023-10-08T10:54:22;10.25;;;7.53;;
79052;SDS011;68451;49.510;6.026;2023-10-08T10:56:49;10.35;;;6.43;;
79052;SDS011;68451;49.510;6.026;2023-10-08T10:59:31;11.85;;;6.47;;
79052;SDS011;68451;49.510;6.026;2023-10-08T11:02:04;13.15;;;7.45;;
79052;SDS011;68451;49.510;6.026;2023-10-08T11:04:33;9.18;;;6.75;;
79052;SDS011;68451;49.510;6.026;2023-10-08T11:07:10;9.40;;;6.35;;
79052;SDS011;68451;49.510;6.026;2023-10-08T11:09:37;9.55;;;6.60;;
79052;SDS011;68451;49.510;6.026;2023-10-08T11:12:04;9.38;;;6.32;;
79052;SDS011;68451;49.510;6.026;2023-10-08T11:14:40;12.95;;;6.88;;
79052;SDS011;68451;49.510;6.026;2023-10-08T11:17:13;9.40;;;6.65;;
79052;SDS011;68451;49.510;6.026;2023-10-08T11:19:44;11.57;;;7.10;;
79052;SDS011;68451;49.510;6.026;2023-10-08T11:22:13;10.98;;;6.70;;
79052;SDS011;68451;49.510;6.026;2023-10-08T11:24:46;10.40;;;5.60;;
79052;SDS011;68451;49.510;6.026;2023-10-08T11:27:18;15.82;;;6.70;;
79052;SDS011;68451;49.510;6.026;2023-10-08T11:30:03;12.77;;;7.25;;
79052;SDS011;68451;49.510;6.026;2023-10-08T11:32:35;9.73;;;6.57;;
79052;SDS011;68451;49.510;6.026;2023-10-08T11:35:03;7.68;;;5.72;;
79052;SDS011;68451;49.510;6.026;2023-10-08T11:37:44;10.98;;;6.93;;
79052;SDS011;68451;49.510;6.026;2023-10-08T11:40:25;12.63;;;6.20;;
79052;SDS011;68451;49.510;6.026;2023-10-08T11:43:02;11.05;;;6.35;;
79052;SDS011;68451;49.510;6.026;2023-10-08T11:45:28;10.82;;;6.47;;
79052;SDS011;68451;49.510;6.026;2023-10-08T11:48:04;10.80;;;5.68;;
79052;SDS011;68451;49.510;6.026;2023-10-08T11:50:37;9.23;;;6.50;;
79052;SDS011;68451;49.510;6.026;2023-10-08T11:53:03;13.90;;;6.45;;
79052;SDS011;68451;49.510;6.026;2023-10-08T11:55:32;9.13;;;5.72;;
79052;SDS011;68451;49.510;6.026;2023-10-08T11:58:04;9.05;;;5.35;;
79052;SDS011;68451;49.510;6.026;2023-10-08T12:00:38;10.35;;;5.75;;
79052;SDS011;68451;49.510;6.026;2023-10-08T12:03:10;9.07;;;5.28;;
79052;SDS011;68451;49.510;6.026;2023-10-08T12:05:45;10.18;;;6.47;;
79052;SDS011;68451;49.510;6.026;2023-10-08T12:08:15;13.60;;;6.85;;
79052;SDS011;68451;49.510;6.026;2023-10-08T12:10:43;12.30;;;6.20;;
79052;SDS011;68451;49.510;6.026;2023-10-08T12:13:10;9.45;;;5.82;;
79052;SDS011;68451;49.510;6.026;2023-10-08T12:15:37;10.32;;;5.70;;
79052;SDS011;68451;49.510;6.026;2023-10-08T12:18:07;10.00;;;5.38;;
79052;SDS011;68451;49.510;6.026;2023-10-08T12:20:51;8.70;;;5.93;;
79052;SDS011;68451;49.510;6.026;2023-10-08T12:23:19;11.00;;;6.90;;
79052;SDS011;68451;49.510;6.026;2023-10-08T12:25:50;12.57;;;6.28;;
79052;SDS011;68451;49.510;6.026;2023-10-08T12:28:23;13.05;;;7.35;;
79052;SDS011;68451;49.510;6.026;2023-10-08T12:30:50;11.25;;;6.85;;
79052;SDS011;68451;49.510;6.026;2023-10-08T12:33:20;13.20;;;6.28;;
79052;SDS011;68451;49.510;6.026;2023-10-08T12:35:47;10.13;;;6.10;;
79052;SDS011;68451;49.510;6.026;2023-10-08T12:38:13;11.65;;;5.95;;
79052;SDS011;68451;49.510;6.026;2023-10-08T12:40:39;9.73;;;5.65;;
79052;SDS011;68451;49.510;6.026;2023-10-08T12:43:31;10.13;;;6.18;;
79052;SDS011;68451;49.510;6.026;2023-10-08T12:45:57;8.82;;;5.70;;
79052;SDS011;68451;49.510;6.026;2023-10-08T12:48:26;10.65;;;6.50;;
79052;SDS011;68451;49.510;6.026;2023-10-08T12:50:52;14.38;;;6.80;;
79052;SDS011;68451;49.510;6.026;2023-10-08T12:53:25;11.45;;;6.05;;
79052;SDS011;68451;49.510;6.026;2023-10-08T12:55:55;11.70;;;6.23;;
79052;SDS011;68451;49.510;6.026;2023-10-08T12:58:23;15.87;;;6.97;;
79052;SDS011;68451;49.510;6.026;2023-10-08T13:03:26;13.45;;;6.00;;
79052;SDS011;68451;49.510;6.026;2023-10-08T13:05:56;9.93;;;5.63;;
79052;SDS011;68451;49.510;6.026;2023-10-08T13:08:32;10.20;;;5.75;;
79052;SDS011;68451;49.510;6.026;2023-10-08T13:10:59;11.93;;;6.20;;
79052;SDS011;68451;49.510;6.026;2023-10-08T13:13:29;11.23;;;6.65;;
79052;SDS011;68451;49.510;6.026;2023-10-08T13:15:57;8.68;;;5.70;;
79052;SDS011;68451;49.510;6.026;2023-10-08T13:18:26;8.85;;;6.13;;
79052;SDS011;68451;49.510;6.026;2023-10-08T13:20:52;9.60;;;5.25;;
79052;SDS011;68451;49.510;6.026;2023-10-08T13:23:18;8.40;;;5.72;;
79052;SDS011;68451;49.510;6.026;2023-10-08T13:25:51;7.97;;;4.40;;
79052;SDS011;68451;49.510;6.026;2023-10-08T13:28:22;20.97;;;6.33;;
79052;SDS011;68451;49.510;6.026;2023-10-08T13:30:51;8.75;;;4.65;;
79052;SDS011;68451;49.510;6.026;2023-10-08T13:33:18;8.98;;;4.55;;
79052;SDS011;68451;49.510;6.026;2023-10-08T13:35:48;7.10;;;4.82;;
79052;SDS011;68451;49.510;6.026;2023-10-08T13:38:17;10.10;;;5.40;;
79052;SDS011;68451;49.510;6.026;2023-10-08T13:40:45;7.55;;;3.97;;
79052;SDS011;68451;49.510;6.026;2023-10-08T13:43:34;11.45;;;6.47;;
79052;SDS011;68451;49.510;6.026;2023-10-08T13:46:01;10.52;;;5.97;;
79052;SDS011;68451;49.510;6.026;2023-10-08T13:48:33;10.50;;;4.63;;
79052;SDS011;68451;49.510;6.026;2023-10-08T13:51:03;8.48;;;5.20;;
79052;SDS011;68451;49.510;6.026;2023-10-08T13:53:31;7.30;;;4.45;;
79052;SDS011;68451;49.510;6.026;2023-10-08T13:55:58;8.73;;;5.20;;
79052;SDS011;68451;49.510;6.026;2023-10-08T13:58:26;11.70;;;4.75;;
79052;SDS011;68451;49.510;6.026;2023-10-08T14:00:55;7.00;;;4.32;;
79052;SDS011;68451;49.510;6.026;2023-10-08T14:03:21;8.23;;;4.93;;
79052;SDS011;68451;49.510;6.026;2023-10-08T14:05:47;10.90;;;5.13;;
79052;SDS011;68451;49.510;6.026;2023-10-08T14:08:19;6.85;;;4.55;;
79052;SDS011;68451;49.510;6.026;2023-10-08T14:10:45;9.35;;;5.13;;
79052;SDS011;68451;49.510;6.026;2023-10-08T14:13:13;9.23;;;5.78;;
79052;SDS011;68451;49.510;6.026;2023-10-08T14:15:44;10.05;;;5.35;;
79052;SDS011;68451;49.510;6.026;2023-10-08T14:18:20;7.05;;;4.00;;
79052;SDS011;68451;49.510;6.026;2023-10-08T14:20:51;10.57;;;5.22;;
79052;SDS011;68451;49.510;6.026;2023-10-08T14:23:19;8.57;;;4.65;;
79052;SDS011;68451;49.510;6.026;2023-10-08T14:25:48;14.50;;;8.70;;
79052;SDS011;68451;49.510;6.026;2023-10-08T14:28:17;14.07;;;6.72;;
79052;SDS011;68451;49.510;6.026;2023-10-08T14:31:03;10.73;;;6.07;;
79052;SDS011;68451;49.510;6.026;2023-10-08T14:33:28;8.85;;;5.90;;
79052;SDS011;68451;49.510;6.026;2023-10-08T14:35:57;11.70;;;6.85;;
79052;SDS011;68451;49.510;6.026;2023-10-08T14:38:41;11.32;;;7.78;;
79052;SDS011;68451;49.510;6.026;2023-10-08T14:41:25;9.82;;;7.30;;
79052;SDS011;68451;49.510;6.026;2023-10-08T14:44:09;7.30;;;5.05;;
79052;SDS011;68451;49.510;6.026;2023-10-08T14:46:36;11.15;;;5.78;;
79052;SDS011;68451;49.510;6.026;2023-10-08T14:49:02;10.95;;;6.10;;
79052;SDS011;68451;49.510;6.026;2023-10-08T14:51:28;9.32;;;5.50;;
79052;SDS011;68451;49.510;6.026;2023-10-08T14:53:55;7.50;;;4.95;;
79052;SDS011;68451;49.510;6.026;2023-10-08T14:56:21;7.32;;;4.32;;
79052;SDS011;68451;49.510;6.026;2023-10-08T14:58:48;6.70;;;4.63;;
79052;SDS011;68451;49.510;6.026;2023-10-08T15:01:14;9.88;;;4.40;;
79052;SDS011;68451;49.510;6.026;2023-10-08T15:03:40;7.45;;;4.82;;
79052;SDS011;68451;49.510;6.026;2023-10-08T15:06:05;7.05;;;4.05;;
79052;SDS011;68451;49.510;6.026;2023-10-08T15:08:32;7.25;;;4.05;;
79052;SDS011;68451;49.510;6.026;2023-10-08T15:10:58;9.45;;;5.32;;
79052;SDS011;68451;49.510;6.026;2023-10-08T15:13:25;8.95;;;4.70;;
79052;SDS011;68451;49.510;6.026;2023-10-08T15:15:51;10.43;;;5.30;;
79052;SDS011;68451;49.510;6.026;2023-10-08T15:18:19;7.28;;;5.10;;
79052;SDS011;68451;49.510;6.026;2023-10-08T15:20:45;7.70;;;5.07;;
79052;SDS011;68451;49.510;6.026;2023-10-08T15:23:11;11.57;;;5.30;;
79052;SDS011;68451;49.510;6.026;2023-10-08T15:25:37;7.05;;;5.13;;
79052;SDS011;68451;49.510;6.026;2023-10-08T15:28:04;6.47;;;4.40;;
79052;SDS011;68451;49.510;6.026;2023-10-08T15:30:29;8.65;;;4.50;;
79052;SDS011;68451;49.510;6.026;2023-10-08T15:32:56;6.55;;;5.22;;